sensor_id;sensor_type;location;lat;lon;timestamp;pressure;altitude;pressure_sealevel;temperature;humidity
71966;BME280;59836;52.132;5.442;2023-03-22T00:02:12;100981.81;;;9.37;86.78
71966;BME280;59836;52.132;5.442;2023-03-22T00:04:41;100973.69;;;9.37;86.84
71966;BME280;59836;52.132;5.442;2023-03-22T00:07:07;100969.88;;;9.33;87.23
71966;BME280;59836;52.132;5.442;2023-03-22T00:09:34;100972.00;;;9.31;87.26
71966;BME280;59836;52.132;5.442;2023-03-22T00:12:01;100966.03;;;9.29;87.04
71966;BME280;59836;52.132;5.442;2023-03-22T00:14:28;100961.19;;;9.31;87.52
71966;BME280;59836;52.132;5.442;2023-03-22T00:16:54;100963.09;;;9.30;86.96
71966;BME280;59836;52.132;5.442;2023-03-22T00:19:20;100960.06;;;9.27;87.08
71966;BME280;59836;52.132;5.442;2023-03-22T00:21:47;100954.59;;;9.22;87.16
71966;BME280;59836;52.132;5.442;2023-03-22T00:24:13;100956.81;;;9.25;87.74
71966;BME280;59836;52.132;5.442;2023-03-22T00:26:39;100955.16;;;9.24;86.95
71966;BME280;59836;52.132;5.442;2023-03-22T00:29:06;100947.00;;;9.19;87.51
71966;BME280;59836;52.132;5.442;2023-03-22T00:31:33;100942.44;;;9.19;87.58
71966;BME280;59836;52.132;5.442;2023-03-22T00:34:00;100941.59;;;9.19;87.43
71966;BME280;59836;52.132;5.442;2023-03-22T00:36:26;100945.38;;;9.18;87.55
71966;BME280;59836;52.132;5.442;2023-03-22T00:38:52;100942.66;;;9.18;87.58
71966;BME280;59836;52.132;5.442;2023-03-22T00:41:21;100943.75;;;9.16;87.70
71966;BME280;59836;52.132;5.442;2023-03-22T00:43:52;100944.56;;;9.17;88.01
71966;BME280;59836;52.132;5.442;2023-03-22T00:46:20;100938.31;;;9.16;87.79
71966;BME280;59836;52.132;5.442;2023-03-22T00:48:47;100929.09;;;9.12;87.72
71966;BME280;59836;52.132;5.442;2023-03-22T00:51:15;100930.16;;;9.11;87.88
71966;BME280;59836;52.132;5.442;2023-03-22T00:53:42;100926.38;;;9.12;88.17
71966;BME280;59836;52.132;5.442;2023-03-22T00:56:10;100929.59;;;9.09;88.05
71966;BME280;59836;52.132;5.442;2023-03-22T00:58:39;100918.22;;;9.07;87.93
71966;BME280;59836;52.132;5.442;2023-03-22T01:01:06;100918.75;;;9.04;88.10
71966;BME280;59836;52.132;5.442;2023-03-22T01:03:32;100907.91;;;9.04;87.83
71966;BME280;59836;52.132;5.442;2023-03-22T01:06:00;100907.13;;;9.04;87.97
71966;BME280;59836;52.132;5.442;2023-03-22T01:08:26;100903.59;;;9.03;87.91
71966;BME280;59836;52.132;5.442;2023-03-22T01:10:59;100897.09;;;9.04;88.35
71966;BME280;59836;52.132;5.442;2023-03-22T01:13:26;100889.81;;;9.05;87.71
71966;BME280;59836;52.132;5.442;2023-03-22T01:15:53;100886.28;;;9.04;87.92
71966;BME280;59836;52.132;5.442;2023-03-22T01:18:19;100882.22;;;9.01;87.92
71966;BME280;59836;52.132;5.442;2023-03-22T01:20:45;100879.78;;;9.00;87.98
71966;BME280;59836;52.132;5.442;2023-03-22T01:23:12;100872.75;;;8.99;87.74
71966;BME280;59836;52.132;5.442;2023-03-22T01:25:38;100872.97;;;8.97;87.79
71966;BME280;59836;52.132;5.442;2023-03-22T01:28:05;100867.31;;;8.99;87.98
71966;BME280;59836;52.132;5.442;2023-03-22T01:30:32;100867.31;;;8.99;87.59
71966;BME280;59836;52.132;5.442;2023-03-22T01:32:59;100862.72;;;8.99;88.20
71966;BME280;59836;52.132;5.442;2023-03-22T01:35:26;100861.38;;;9.02;88.48
71966;BME280;59836;52.132;5.442;2023-03-22T01:37:52;100856.78;;;9.03;88.23
71966;BME280;59836;52.132;5.442;2023-03-22T01:40:22;100847.84;;;9.02;87.61
71966;BME280;59836;52.132;5.442;2023-03-22T01:42:48;100838.38;;;8.99;87.59
71966;BME280;59836;52.132;5.442;2023-03-22T01:47:48;100833.78;;;9.00;87.57
71966;BME280;59836;52.132;5.442;2023-03-22T01:50:16;100817.56;;;9.00;87.90
71966;BME280;59836;52.132;5.442;2023-03-22T01:52:46;100828.91;;;8.97;87.65
71966;BME280;59836;52.132;5.442;2023-03-22T01:55:13;100818.63;;;8.99;87.82
71966;BME280;59836;52.132;5.442;2023-03-22T01:57:43;100807.81;;;8.99;87.85
71966;BME280;59836;52.132;5.442;2023-03-22T02:00:11;100808.34;;;8.96;87.46
71966;BME280;59836;52.132;5.442;2023-03-22T02:02:42;100804.03;;;9.00;88.03
71966;BME280;59836;52.132;5.442;2023-03-22T02:05:09;100798.63;;;9.00;87.43
71966;BME280;59836;52.132;5.442;2023-03-22T02:07:36;100790.22;;;9.01;87.71
71966;BME280;59836;52.132;5.442;2023-03-22T02:10:12;100785.63;;;9.02;87.76
71966;BME280;59836;52.132;5.442;2023-03-22T02:24:12;100774.59;;;9.09;87.80
71966;BME280;59836;52.132;5.442;2023-03-22T02:29:46;100765.41;;;9.10;87.37
71966;BME280;59836;52.132;5.442;2023-03-22T02:36:03;100747.78;;;9.07;88.32
71966;BME280;59836;52.132;5.442;2023-03-22T02:41:34;100747.78;;;9.07;88.63
71966;BME280;59836;52.132;5.442;2023-03-22T02:47:02;100729.16;;;9.11;88.45
71966;BME280;59836;52.132;5.442;2023-03-22T02:49:39;100726.16;;;9.12;88.83
71966;BME280;59836;52.132;5.442;2023-03-22T02:52:17;100723.22;;;9.14;89.25
71966;BME280;59836;52.132;5.442;2023-03-22T02:55:00;100722.69;;;9.17;89.70
71966;BME280;59836;52.132;5.442;2023-03-22T02:57:39;100726.75;;;9.20;89.76
71966;BME280;59836;52.132;5.442;2023-03-22T03:00:08;100718.06;;;9.18;89.60
71966;BME280;59836;52.132;5.442;2023-03-22T03:02:46;100712.66;;;9.18;89.62
71966;BME280;59836;52.132;5.442;2023-03-22T03:05:15;100708.09;;;9.18;89.91
71966;BME280;59836;52.132;5.442;2023-03-22T03:07:46;100703.47;;;9.19;90.00
71966;BME280;59836;52.132;5.442;2023-03-22T03:10:15;100713.78;;;9.22;90.38
71966;BME280;59836;52.132;5.442;2023-03-22T03:12:42;100713.78;;;9.22;90.46
71966;BME280;59836;52.132;5.442;2023-03-22T03:15:18;100705.13;;;9.25;90.62
71966;BME280;59836;52.132;5.442;2023-03-22T03:28:44;100715.41;;;9.23;90.92
71966;BME280;59836;52.132;5.442;2023-03-22T03:31:28;100718.66;;;9.25;90.99
71966;BME280;59836;52.132;5.442;2023-03-22T03:36:58;100707.03;;;9.24;91.36
71966;BME280;59836;52.132;5.442;2023-03-22T03:39:31;100709.75;;;9.24;91.59
71966;BME280;59836;52.132;5.442;2023-03-22T03:42:00;100708.66;;;9.25;91.30
71966;BME280;59836;52.132;5.442;2023-03-22T03:44:29;100711.63;;;9.24;91.88
71966;BME280;59836;52.132;5.442;2023-03-22T03:46:56;100716.50;;;9.27;92.24
71966;BME280;59836;52.132;5.442;2023-03-22T03:49:23;100705.44;;;9.28;91.90
71966;BME280;59836;52.132;5.442;2023-03-22T03:51:53;100704.34;;;9.29;91.95
71966;BME280;59836;52.132;5.442;2023-03-22T03:54:21;100701.91;;;9.33;92.84
71966;BME280;59836;52.132;5.442;2023-03-22T03:56:48;100690.00;;;9.34;92.37
71966;BME280;59836;52.132;5.442;2023-03-22T03:59:15;100695.97;;;9.36;92.23
71966;BME280;59836;52.132;5.442;2023-03-22T04:01:46;100693.81;;;9.38;92.02
71966;BME280;59836;52.132;5.442;2023-03-22T04:04:22;100695.19;;;9.41;92.37
71966;BME280;59836;52.132;5.442;2023-03-22T04:06:54;100701.16;;;9.43;92.30
71966;BME280;59836;52.132;5.442;2023-03-22T04:09:24;100703.03;;;9.42;91.94
71966;BME280;59836;52.132;5.442;2023-03-22T04:11:53;100698.16;;;9.44;92.54
71966;BME280;59836;52.132;5.442;2023-03-22T04:14:20;100708.19;;;9.44;91.96
71966;BME280;59836;52.132;5.442;2023-03-22T04:16:46;100697.09;;;9.45;92.09
71966;BME280;59836;52.132;5.442;2023-03-22T04:19:13;100695.47;;;9.44;92.13
71966;BME280;59836;52.132;5.442;2023-03-22T04:21:44;100690.88;;;9.45;92.12
71966;BME280;59836;52.132;5.442;2023-03-22T04:24:11;100694.38;;;9.45;91.95
71966;BME280;59836;52.132;5.442;2023-03-22T04:26:39;100692.50;;;9.46;92.06
71966;BME280;59836;52.132;5.442;2023-03-22T04:29:06;100684.09;;;9.48;92.00
71966;BME280;59836;52.132;5.442;2023-03-22T04:31:32;100680.31;;;9.49;91.93
71966;BME280;59836;52.132;5.442;2023-03-22T04:34:01;100681.94;;;9.50;91.89
71966;BME280;59836;52.132;5.442;2023-03-22T04:36:35;100685.19;;;9.52;92.20
71966;BME280;59836;52.132;5.442;2023-03-22T04:39:10;100675.44;;;9.51;91.70
71966;BME280;59836;52.132;5.442;2023-03-22T04:41:37;100670.59;;;9.53;91.84
71966;BME280;59836;52.132;5.442;2023-03-22T04:44:04;100667.88;;;9.53;91.84
71966;BME280;59836;52.132;5.442;2023-03-22T04:46:37;100665.16;;;9.53;91.73
71966;BME280;59836;52.132;5.442;2023-03-22T04:49:04;100665.16;;;9.53;91.90
71966;BME280;59836;52.132;5.442;2023-03-22T04:51:31;100672.22;;;9.54;92.06
71966;BME280;59836;52.132;5.442;2023-03-22T04:53:58;100670.31;;;9.54;92.02
71966;BME280;59836;52.132;5.442;2023-03-22T04:56:25;100669.50;;;9.54;91.67
71966;BME280;59836;52.132;5.442;2023-03-22T04:58:52;100661.09;;;9.55;92.12
71966;BME280;59836;52.132;5.442;2023-03-22T05:01:18;100664.63;;;9.56;91.98
71966;BME280;59836;52.132;5.442;2023-03-22T05:03:44;100657.06;;;9.58;91.41
71966;BME280;59836;52.132;5.442;2023-03-22T05:06:13;100656.50;;;9.56;91.47
71966;BME280;59836;52.132;5.442;2023-03-22T05:08:40;100659.22;;;9.56;91.40
71966;BME280;59836;52.132;5.442;2023-03-22T05:11:10;100651.91;;;9.56;91.69
71966;BME280;59836;52.132;5.442;2023-03-22T05:13:39;100638.91;;;9.53;91.76
71966;BME280;59836;52.132;5.442;2023-03-22T05:16:06;100646.50;;;9.51;91.69
71966;BME280;59836;52.132;5.442;2023-03-22T05:18:35;100645.66;;;9.51;91.88
71966;BME280;59836;52.132;5.442;2023-03-22T05:21:16;100655.69;;;9.50;91.47
71966;BME280;59836;52.132;5.442;2023-03-22T05:23:47;100651.09;;;9.51;91.34
71966;BME280;59836;52.132;5.442;2023-03-22T05:26:16;100644.88;;;9.50;91.26
71966;BME280;59836;52.132;5.442;2023-03-22T05:28:45;100642.97;;;9.51;91.41
71966;BME280;59836;52.132;5.442;2023-03-22T05:31:12;100645.66;;;9.51;90.66
71966;BME280;59836;52.132;5.442;2023-03-22T05:33:40;100647.03;;;9.48;90.84
71966;BME280;59836;52.132;5.442;2023-03-22T05:36:07;100644.56;;;9.47;91.07
71966;BME280;59836;52.132;5.442;2023-03-22T05:38:34;100641.31;;;9.44;91.04
71966;BME280;59836;52.132;5.442;2023-03-22T05:41:00;100635.91;;;9.39;91.46
71966;BME280;59836;52.132;5.442;2023-03-22T05:43:27;100634.00;;;9.40;91.09
71966;BME280;59836;52.132;5.442;2023-03-22T05:45:53;100636.97;;;9.38;91.03
71966;BME280;59836;52.132;5.442;2023-03-22T05:48:28;100635.34;;;9.37;90.79
71966;BME280;59836;52.132;5.442;2023-03-22T05:50:54;100643.47;;;9.37;90.92
71966;BME280;59836;52.132;5.442;2023-03-22T05:53:21;100639.13;;;9.36;90.88
71966;BME280;59836;52.132;5.442;2023-03-22T05:55:47;100631.00;;;9.36;91.32
71966;BME280;59836;52.132;5.442;2023-03-22T05:58:13;100633.72;;;9.36;90.69
71966;BME280;59836;52.132;5.442;2023-03-22T06:00:45;100622.09;;;9.36;90.87
71966;BME280;59836;52.132;5.442;2023-03-22T06:03:14;100622.09;;;9.36;90.80
71966;BME280;59836;52.132;5.442;2023-03-22T06:05:42;100625.88;;;9.35;91.34
71966;BME280;59836;52.132;5.442;2023-03-22T06:08:09;100622.91;;;9.36;90.65
71966;BME280;59836;52.132;5.442;2023-03-22T06:10:36;100626.69;;;9.35;90.55
71966;BME280;59836;52.132;5.442;2023-03-22T06:13:02;100624.81;;;9.36;90.51
71966;BME280;59836;52.132;5.442;2023-03-22T06:15:29;100619.63;;;9.34;90.62
71966;BME280;59836;52.132;5.442;2023-03-22T06:17:55;100622.09;;;9.36;90.99
71966;BME280;59836;52.132;5.442;2023-03-22T06:20:22;100623.72;;;9.37;90.47
71966;BME280;59836;52.132;5.442;2023-03-22T06:22:48;100619.94;;;9.38;90.71
71966;BME280;59836;52.132;5.442;2023-03-22T06:25:14;100622.91;;;9.36;90.69
71966;BME280;59836;52.132;5.442;2023-03-22T06:27:41;100626.16;;;9.38;90.82
71966;BME280;59836;52.132;5.442;2023-03-22T06:30:08;100622.34;;;9.39;90.54
71966;BME280;59836;52.132;5.442;2023-03-22T06:32:35;100625.06;;;9.39;90.59
71966;BME280;59836;52.132;5.442;2023-03-22T06:35:02;100625.63;;;9.41;90.47
71966;BME280;59836;52.132;5.442;2023-03-22T06:37:28;100628.09;;;9.48;90.69
71966;BME280;59836;52.132;5.442;2023-03-22T06:39:57;100621.31;;;9.56;90.39
71966;BME280;59836;52.132;5.442;2023-03-22T06:42:23;100623.50;;;9.64;89.92
71966;BME280;59836;52.132;5.442;2023-03-22T06:44:51;100625.38;;;9.69;89.21
71966;BME280;59836;52.132;5.442;2023-03-22T06:47:17;100628.09;;;9.74;90.13
71966;BME280;59836;52.132;5.442;2023-03-22T06:49:43;100635.69;;;9.77;88.98
71966;BME280;59836;52.132;5.442;2023-03-22T06:52:10;100638.69;;;9.81;89.18
71966;BME280;59836;52.132;5.442;2023-03-22T06:54:36;100631.34;;;9.81;88.83
71966;BME280;59836;52.132;5.442;2023-03-22T06:57:03;100634.59;;;9.83;88.97
71966;BME280;59836;52.132;5.442;2023-03-22T06:59:30;100631.66;;;9.85;88.90
71966;BME280;59836;52.132;5.442;2023-03-22T07:01:57;100634.38;;;9.90;88.82
71966;BME280;59836;52.132;5.442;2023-03-22T07:04:23;100634.63;;;9.94;88.19
71966;BME280;59836;52.132;5.442;2023-03-22T07:06:51;100628.94;;;9.95;88.67
71966;BME280;59836;52.132;5.442;2023-03-22T07:09:18;100628.94;;;9.95;87.91
71966;BME280;59836;52.132;5.442;2023-03-22T07:11:45;100625.16;;;9.96;87.75
71966;BME280;59836;52.132;5.442;2023-03-22T07:14:11;100625.94;;;9.97;87.79
71966;BME280;59836;52.132;5.442;2023-03-22T07:16:37;100626.25;;;9.95;88.24
71966;BME280;59836;52.132;5.442;2023-03-22T07:19:04;100637.31;;;9.99;88.23
71966;BME280;59836;52.132;5.442;2023-03-22T07:21:30;100627.03;;;9.96;87.63
71966;BME280;59836;52.132;5.442;2023-03-22T07:23:57;100630.56;;;9.96;87.27
71966;BME280;59836;52.132;5.442;2023-03-22T07:26:23;100638.41;;;9.98;87.01
71966;BME280;59836;52.132;5.442;2023-03-22T07:28:51;100636.78;;;9.97;87.32
71966;BME280;59836;52.132;5.442;2023-03-22T07:31:18;100629.19;;;9.99;86.99
71966;BME280;59836;52.132;5.442;2023-03-22T07:33:44;100627.03;;;10.01;87.12
71966;BME280;59836;52.132;5.442;2023-03-22T07:36:11;100625.69;;;10.03;87.35
71966;BME280;59836;52.132;5.442;2023-03-22T07:38:38;100631.66;;;10.06;86.39
71966;BME280;59836;52.132;5.442;2023-03-22T07:41:04;100628.38;;;10.09;86.20
71966;BME280;59836;52.132;5.442;2023-03-22T07:43:31;100628.66;;;10.12;86.48
71966;BME280;59836;52.132;5.442;2023-03-22T07:46:06;100627.28;;;10.15;86.34
71966;BME280;59836;52.132;5.442;2023-03-22T07:48:34;100619.16;;;10.20;86.04
71966;BME280;59836;52.132;5.442;2023-03-22T07:51:01;100627.28;;;10.20;86.22
71966;BME280;59836;52.132;5.442;2023-03-22T07:53:30;100624.84;;;10.24;85.75
71966;BME280;59836;52.132;5.442;2023-03-22T07:56:03;100632.72;;;10.25;85.84
71966;BME280;59836;52.132;5.442;2023-03-22T07:58:29;100635.16;;;10.27;85.65
71966;BME280;59836;52.132;5.442;2023-03-22T08:00:56;100632.16;;;10.28;85.49
71966;BME280;59836;52.132;5.442;2023-03-22T08:03:23;100627.03;;;10.32;85.06
71966;BME280;59836;52.132;5.442;2023-03-22T08:05:50;100626.47;;;10.35;85.15
71966;BME280;59836;52.132;5.442;2023-03-22T08:08:17;100636.25;;;10.41;85.28
71966;BME280;59836;52.132;5.442;2023-03-22T08:10:47;100639.22;;;10.50;85.08
71966;BME280;59836;52.132;5.442;2023-03-22T08:13:14;100619.97;;;10.57;84.22
71966;BME280;59836;52.132;5.442;2023-03-22T08:15:40;100625.34;;;10.62;84.40
71966;BME280;59836;52.132;5.442;2023-03-22T08:18:08;100621.81;;;10.67;83.43
71966;BME280;59836;52.132;5.442;2023-03-22T08:20:34;100618.03;;;10.68;83.35
71966;BME280;59836;52.132;5.442;2023-03-22T08:23:03;100623.97;;;10.70;83.48
71966;BME280;59836;52.132;5.442;2023-03-22T08:25:32;100623.44;;;10.68;83.05
71966;BME280;59836;52.132;5.442;2023-03-22T08:28:08;100627.25;;;10.67;83.14
71966;BME280;59836;52.132;5.442;2023-03-22T08:30:35;100616.41;;;10.67;82.97
71966;BME280;59836;52.132;5.442;2023-03-22T08:33:04;100618.56;;;10.65;82.76
71966;BME280;59836;52.132;5.442;2023-03-22T08:35:31;100614.78;;;10.66;82.38
71966;BME280;59836;52.132;5.442;2023-03-22T08:37:59;100620.44;;;10.69;83.91
71966;BME280;59836;52.132;5.442;2023-03-22T08:40:27;100614.75;;;10.71;83.20
71966;BME280;59836;52.132;5.442;2023-03-22T08:42:53;100613.13;;;10.75;83.55
71966;BME280;59836;52.132;5.442;2023-03-22T08:45:20;100619.09;;;10.77;83.28
71966;BME280;59836;52.132;5.442;2023-03-22T08:47:46;100616.34;;;10.82;83.32
71966;BME280;59836;52.132;5.442;2023-03-22T08:50:13;100623.09;;;10.85;83.14
71966;BME280;59836;52.132;5.442;2023-03-22T08:52:44;100605.47;;;10.87;82.36
71966;BME280;59836;52.132;5.442;2023-03-22T08:55:10;100607.34;;;10.92;82.00
71966;BME280;59836;52.132;5.442;2023-03-22T08:57:42;100602.19;;;10.96;81.92
71966;BME280;59836;52.132;5.442;2023-03-22T09:00:16;100624.16;;;10.99;81.81
71966;BME280;59836;52.132;5.442;2023-03-22T09:02:43;100606.25;;;10.98;81.19
71966;BME280;59836;52.132;5.442;2023-03-22T09:05:09;100615.22;;;10.93;80.75
71966;BME280;59836;52.132;5.442;2023-03-22T09:07:36;100614.69;;;10.91;81.41
71966;BME280;59836;52.132;5.442;2023-03-22T09:10:04;100607.09;;;10.88;81.11
71966;BME280;59836;52.132;5.442;2023-03-22T09:12:30;100615.50;;;10.87;81.00
71966;BME280;59836;52.132;5.442;2023-03-22T09:14:57;100623.94;;;10.85;81.31
71966;BME280;59836;52.132;5.442;2023-03-22T09:17:23;100616.88;;;10.84;81.19
71966;BME280;59836;52.132;5.442;2023-03-22T09:19:54;100613.63;;;10.82;81.05
71966;BME280;59836;52.132;5.442;2023-03-22T09:22:37;100623.09;;;10.85;81.87
71966;BME280;59836;52.132;5.442;2023-03-22T09:25:03;100617.97;;;10.88;81.90
71966;BME280;59836;52.132;5.442;2023-03-22T09:27:30;100621.22;;;10.90;81.37
71966;BME280;59836;52.132;5.442;2023-03-22T09:29:56;100631.78;;;10.87;81.15
71966;BME280;59836;52.132;5.442;2023-03-22T09:32:23;100620.94;;;10.87;81.81
71966;BME280;59836;52.132;5.442;2023-03-22T09:34:49;100614.72;;;10.86;82.00
71966;BME280;59836;52.132;5.442;2023-03-22T09:37:16;100623.94;;;10.85;82.30
71966;BME280;59836;52.132;5.442;2023-03-22T09:39:44;100622.31;;;10.84;82.52
71966;BME280;59836;52.132;5.442;2023-03-22T09:42:24;100620.41;;;10.80;83.03
71966;BME280;59836;52.132;5.442;2023-03-22T09:44:55;100625.06;;;10.74;83.04
71966;BME280;59836;52.132;5.442;2023-03-22T09:47:32;100627.78;;;10.74;83.07
71966;BME280;59836;52.132;5.442;2023-03-22T09:50:25;100623.44;;;10.68;83.94
71966;BME280;59836;52.132;5.442;2023-03-22T09:52:54;100621.81;;;10.67;84.84
71966;BME280;59836;52.132;5.442;2023-03-22T09:55:37;100620.19;;;10.66;85.81
71966;BME280;59836;52.132;5.442;2023-03-22T09:58:18;100618.59;;;10.59;85.54
71966;BME280;59836;52.132;5.442;2023-03-22T10:00:53;100623.47;;;10.52;86.38
71966;BME280;59836;52.132;5.442;2023-03-22T10:06:20;100614.81;;;10.45;87.07
71966;BME280;59836;52.132;5.442;2023-03-22T10:09:07;100618.59;;;10.39;86.99
71966;BME280;59836;52.132;5.442;2023-03-22T10:11:42;100612.09;;;10.29;87.92
71966;BME280;59836;52.132;5.442;2023-03-22T10:16:54;100615.91;;;10.28;88.59
71966;BME280;59836;52.132;5.442;2023-03-22T10:19:26;100615.91;;;10.28;88.59
71966;BME280;59836;52.132;5.442;2023-03-22T10:21:56;100619.16;;;10.30;88.97
71966;BME280;59836;52.132;5.442;2023-03-22T10:24:35;100619.16;;;10.30;89.31
71966;BME280;59836;52.132;5.442;2023-03-22T10:27:12;100615.91;;;10.28;89.22
71966;BME280;59836;52.132;5.442;2023-03-22T10:29:52;100620.53;;;10.28;89.81
71966;BME280;59836;52.132;5.442;2023-03-22T10:32:45;100615.09;;;10.28;89.56
71966;BME280;59836;52.132;5.442;2023-03-22T10:35:23;100619.44;;;10.29;89.58
71966;BME280;59836;52.132;5.442;2023-03-22T10:37:51;100616.44;;;10.25;90.46
71966;BME280;59836;52.132;5.442;2023-03-22T10:40:28;100624.03;;;10.23;90.59
71966;BME280;59836;52.132;5.442;2023-03-22T10:42:59;100614.56;;;10.21;90.72
71966;BME280;59836;52.132;5.442;2023-03-22T10:45:32;100618.63;;;10.23;91.14
71966;BME280;59836;52.132;5.442;2023-03-22T10:48:29;100620.53;;;10.23;90.70
71966;BME280;59836;52.132;5.442;2023-03-22T10:50:59;100625.66;;;10.24;90.99
71966;BME280;59836;52.132;5.442;2023-03-22T10:53:39;100620.25;;;10.24;91.16
71966;BME280;59836;52.132;5.442;2023-03-22T10:56:12;100624.56;;;10.25;91.13
71966;BME280;59836;52.132;5.442;2023-03-22T10:58:39;100606.13;;;10.27;91.42
71966;BME280;59836;52.132;5.442;2023-03-22T11:01:31;100601.25;;;10.29;91.20
71966;BME280;59836;52.132;5.442;2023-03-22T11:06:30;100607.22;;;10.26;90.94
71966;BME280;59836;52.132;5.442;2023-03-22T11:09:22;100609.13;;;10.31;91.05
71966;BME280;59836;52.132;5.442;2023-03-22T11:11:51;100595.81;;;10.34;91.09
71966;BME280;59836;52.132;5.442;2023-03-22T11:14:26;100602.34;;;10.33;91.16
71966;BME280;59836;52.132;5.442;2023-03-22T11:17:15;100604.50;;;10.37;91.65
71966;BME280;59836;52.132;5.442;2023-03-22T11:22:25;100605.03;;;10.39;91.06
71966;BME280;59836;52.132;5.442;2023-03-22T11:24:56;100596.91;;;10.39;91.44
71966;BME280;59836;52.132;5.442;2023-03-22T11:27:29;100603.19;;;10.39;91.28
71966;BME280;59836;52.132;5.442;2023-03-22T11:29:59;100590.44;;;10.40;91.18
71966;BME280;59836;52.132;5.442;2023-03-22T11:32:37;100593.13;;;10.45;91.04
71966;BME280;59836;52.132;5.442;2023-03-22T11:35:21;100599.09;;;10.47;90.85
71966;BME280;59836;52.132;5.442;2023-03-22T11:37:53;100595.84;;;10.45;91.20
71966;BME280;59836;52.132;5.442;2023-03-22T11:40:26;100583.91;;;10.46;90.94
71966;BME280;59836;52.132;5.442;2023-03-22T11:42:55;100588.78;;;10.49;90.67
71966;BME280;59836;52.132;5.442;2023-03-22T11:45:29;100602.34;;;10.49;90.35
71966;BME280;59836;52.132;5.442;2023-03-22T11:48:01;100599.63;;;10.49;90.20
71966;BME280;59836;52.132;5.442;2023-03-22T11:50:31;100607.22;;;10.52;90.46
71966;BME280;59836;52.132;5.442;2023-03-22T11:53:01;100605.03;;;10.54;90.38
71966;BME280;59836;52.132;5.442;2023-03-22T11:55:29;100604.50;;;10.52;89.89
71966;BME280;59836;52.132;5.442;2023-03-22T11:57:57;100619.69;;;10.53;90.33
71966;BME280;59836;52.132;5.442;2023-03-22T12:00:26;100613.47;;;10.53;89.67
71966;BME280;59836;52.132;5.442;2023-03-22T12:03:15;100616.44;;;10.51;89.86
71966;BME280;59836;52.132;5.442;2023-03-22T12:05:47;100630.00;;;10.51;89.75
71966;BME280;59836;52.132;5.442;2023-03-22T12:08:17;100625.09;;;10.53;89.87
71966;BME280;59836;52.132;5.442;2023-03-22T12:10:49;100621.59;;;10.53;89.43
71966;BME280;59836;52.132;5.442;2023-03-22T12:13:50;100626.47;;;10.56;89.55
71966;BME280;59836;52.132;5.442;2023-03-22T12:16:20;100611.00;;;10.56;90.07
71966;BME280;59836;52.132;5.442;2023-03-22T12:19:03;100618.06;;;10.57;89.83
71966;BME280;59836;52.132;5.442;2023-03-22T12:21:33;100604.22;;;10.59;89.86
71966;BME280;59836;52.132;5.442;2023-03-22T12:24:01;100607.44;;;10.61;89.48
71966;BME280;59836;52.132;5.442;2023-03-22T12:26:29;100608.28;;;10.61;89.45
71966;BME280;59836;52.132;5.442;2023-03-22T12:29:00;100609.06;;;10.62;88.97
71966;BME280;59836;52.132;5.442;2023-03-22T12:31:55;100608.28;;;10.61;88.95
71966;BME280;59836;52.132;5.442;2023-03-22T12:34:38;100600.69;;;10.63;88.81
71966;BME280;59836;52.132;5.442;2023-03-22T12:37:09;100616.94;;;10.63;88.83
71966;BME280;59836;52.132;5.442;2023-03-22T12:39:47;100610.69;;;10.63;89.00
71966;BME280;59836;52.132;5.442;2023-03-22T12:42:31;100603.94;;;10.66;88.81
71966;BME280;59836;52.132;5.442;2023-03-22T12:45:20;100598.50;;;10.66;89.08
71966;BME280;59836;52.132;5.442;2023-03-22T12:47:56;100603.94;;;10.66;89.10
71966;BME280;59836;52.132;5.442;2023-03-22T12:50:41;100607.97;;;10.68;88.70
71966;BME280;59836;52.132;5.442;2023-03-22T12:53:13;100594.69;;;10.67;88.52
71966;BME280;59836;52.132;5.442;2023-03-22T12:55:51;100595.25;;;10.69;88.62
71966;BME280;59836;52.132;5.442;2023-03-22T12:58:21;100593.06;;;10.71;88.52
71966;BME280;59836;52.132;5.442;2023-03-22T13:00:58;100586.53;;;10.72;87.94
71966;BME280;59836;52.132;5.442;2023-03-22T13:03:47;100589.78;;;10.74;87.90
71966;BME280;59836;52.132;5.442;2023-03-22T13:09:15;100593.56;;;10.78;88.32
71966;BME280;59836;52.132;5.442;2023-03-22T13:11:45;100591.66;;;10.78;88.08
71966;BME280;59836;52.132;5.442;2023-03-22T13:30:21;100601.19;;;10.76;88.46
71966;BME280;59836;52.132;5.442;2023-03-22T13:32:50;100601.72;;;10.78;88.14
71966;BME280;59836;52.132;5.442;2023-03-22T13:35:27;100599.53;;;10.80;88.20
71966;BME280;59836;52.132;5.442;2023-03-22T13:38:07;100597.38;;;10.82;88.50
71966;BME280;59836;52.132;5.442;2023-03-22T13:40:37;100593.56;;;10.83;87.77
71966;BME280;59836;52.132;5.442;2023-03-22T13:46:51;100603.84;;;10.86;89.02
71966;BME280;59836;52.132;5.442;2023-03-22T13:52:23;100593.00;;;10.86;89.12
71966;BME280;59836;52.132;5.442;2023-03-22T13:54:52;100589.22;;;10.87;89.51
71966;BME280;59836;52.132;5.442;2023-03-22T13:57:46;100587.03;;;10.84;89.76
71966;BME280;59836;52.132;5.442;2023-03-22T14:00:31;100582.72;;;10.83;89.78
71966;BME280;59836;52.132;5.442;2023-03-22T14:03:05;100585.44;;;10.83;90.13
71966;BME280;59836;52.132;5.442;2023-03-22T14:05:37;100588.94;;;10.84;90.22
71966;BME280;59836;52.132;5.442;2023-03-22T14:08:26;100587.59;;;10.86;90.30
71966;BME280;59836;52.132;5.442;2023-03-22T14:10:59;100588.94;;;10.84;91.07
71966;BME280;59836;52.132;5.442;2023-03-22T14:13:38;100583.25;;;10.85;90.79
71966;BME280;59836;52.132;5.442;2023-03-22T14:19:32;100572.94;;;10.87;91.11
71966;BME280;59836;52.132;5.442;2023-03-22T14:22:04;100571.84;;;10.88;91.00
71966;BME280;59836;52.132;5.442;2023-03-22T14:24:38;100564.78;;;10.87;90.82
71966;BME280;59836;52.132;5.442;2023-03-22T14:27:05;100562.06;;;10.87;91.26
71966;BME280;59836;52.132;5.442;2023-03-22T14:29:47;100547.94;;;10.90;91.32
71966;BME280;59836;52.132;5.442;2023-03-22T14:32:24;100549.56;;;10.97;91.22
71966;BME280;59836;52.132;5.442;2023-03-22T14:35:01;100544.13;;;10.97;91.46